createdAt,value
2022-08-10T00:04:09.803Z,59.50
2022-08-10T00:09:23.983Z,59.80
2022-08-10T00:14:26.456Z,59.80
2022-08-10T00:19:44.653Z,60.00
2022-08-10T00:24:52.772Z,60.60
2022-08-10T00:29:55.673Z,60.50
2022-08-10T00:34:59.609Z,60.60
2022-08-10T00:40:01.986Z,61.00
2022-08-10T00:45:05.234Z,60.80
2022-08-10T00:50:10.481Z,61.10
2022-08-10T00:55:13.093Z,61.80
2022-08-10T01:00:16.172Z,61.60
2022-08-10T01:05:20.895Z,61.90
2022-08-10T01:10:32.672Z,62.40
2022-08-10T01:15:43.245Z,63.30
2022-08-10T01:21:13.947Z,63.00
2022-08-10T01:26:34.549Z,64.40
2022-08-10T01:31:44.306Z,64.40
2022-08-10T01:36:50.439Z,63.60
2022-08-10T01:41:57.109Z,63.60
2022-08-10T01:47:08.811Z,64.10
2022-08-10T01:52:11.547Z,64.20
2022-08-10T01:57:24.591Z,63.80
2022-08-10T02:02:30.373Z,64.30
2022-08-10T02:07:37.785Z,64.40
2022-08-10T02:12:43.232Z,64.10
2022-08-10T02:17:59.498Z,64.10
2022-08-10T02:23:06.555Z,64.50
2022-08-10T02:28:10.474Z,64.10
2022-08-10T02:33:16.347Z,63.90
2022-08-10T02:38:23.226Z,64.20
2022-08-10T02:45:18.779Z,64.10
2022-08-10T02:49:21.626Z,64.20
2022-08-10T02:54:26.791Z,64.70
2022-08-10T02:59:40.143Z,64.50
2022-08-10T03:04:55.543Z,64.60
2022-08-10T03:10:02.493Z,64.60
2022-08-10T03:15:09.452Z,64.30
2022-08-10T03:20:37.274Z,64.00
2022-08-10T03:25:52.673Z,64.40
2022-08-10T03:30:57.412Z,64.40
2022-08-10T03:36:42.532Z,64.50
2022-08-10T03:41:30.887Z,64.80
2022-08-10T03:46:41.813Z,65.00
2022-08-10T03:51:46.585Z,65.20
2022-08-10T03:56:49.284Z,65.70
2022-08-10T04:02:44.211Z,65.80
2022-08-10T04:07:17.519Z,66.40
2022-08-10T04:12:20.075Z,66.60
2022-08-10T04:18:03.253Z,66.80
2022-08-10T04:22:51.890Z,67.10
2022-08-10T04:27:54.976Z,67.20
2022-08-10T04:32:58.891Z,66.90
2022-08-10T04:38:04.336Z,67.00
2022-08-10T04:43:12.730Z,67.20
2022-08-10T04:48:40.035Z,67.30
2022-08-10T04:54:05.904Z,67.60
2022-08-10T04:59:02.068Z,68.20
2022-08-10T05:04:38.580Z,68.70
2022-08-10T05:09:29.061Z,68.90
2022-08-10T05:14:31.499Z,69.40
2022-08-10T05:20:03.804Z,69.50
2022-08-10T05:24:58.032Z,69.20
2022-08-10T05:30:02.555Z,68.50
2022-08-10T05:35:07.365Z,67.40
2022-08-10T05:40:12.233Z,66.00
2022-08-10T05:45:21.054Z,64.30
2022-08-10T05:50:29.349Z,62.50
2022-08-10T05:55:33.417Z,61.40
2022-08-10T06:00:42.948Z,60.10
2022-08-10T06:05:55.142Z,59.00
2022-08-10T06:12:24.101Z,57.70
2022-08-10T06:16:25.779Z,56.90
2022-08-10T06:21:29.232Z,56.20
2022-08-10T06:26:33.303Z,54.70
2022-08-10T06:31:48.237Z,53.40
2022-08-10T06:36:53.993Z,52.10
2022-08-10T06:42:16.209Z,51.10
2022-08-10T06:47:24.565Z,51.20
2022-08-10T06:52:30.686Z,51.20
2022-08-10T06:57:35.274Z,50.70
2022-08-10T07:02:45.108Z,51.30
2022-08-10T07:07:50.311Z,49.30
2022-08-10T07:12:58.153Z,47.90
2022-08-10T07:18:02.774Z,47.50
2022-08-10T07:23:57.127Z,47.60
2022-08-10T07:28:30.292Z,48.40
2022-08-10T07:33:34.939Z,48.20
2022-08-10T07:38:38.897Z,48.70
2022-08-10T07:43:46.606Z,48.40
2022-08-10T07:48:58.240Z,47.20
2022-08-10T07:54:04.473Z,45.30
2022-08-10T07:59:12.256Z,44.10
2022-08-10T08:04:16.800Z,44.30
2022-08-10T08:09:19.866Z,45.50
2022-08-10T08:14:25.900Z,45.10
2022-08-10T08:19:37.959Z,44.50
2022-08-10T08:24:52.459Z,44.00
2022-08-10T08:29:56.945Z,43.90
2022-08-10T08:35:03.315Z,42.80
2022-08-10T08:40:08.860Z,41.90
2022-08-10T08:45:24.333Z,42.10
2022-08-10T08:50:45.136Z,39.40
2022-08-10T08:56:06.194Z,40.10
2022-08-10T09:01:38.178Z,38.90
2022-08-10T09:07:07.030Z,39.30
2022-08-10T09:12:40.624Z,38.90
2022-08-10T09:17:55.511Z,38.80
2022-08-10T09:23:03.825Z,38.70
2022-08-10T09:28:09.073Z,38.50
2022-08-10T09:36:20.491Z,38.00
2022-08-10T09:38:51.583Z,37.20
2022-08-10T09:44:05.965Z,36.30
2022-08-10T09:49:22.460Z,37.20
2022-08-10T09:54:46.998Z,36.10
2022-08-10T10:00:01.941Z,35.90
2022-08-10T10:05:14.804Z,35.40
2022-08-10T10:10:20.427Z,35.50
2022-08-10T10:15:33.731Z,35.20
2022-08-10T10:20:41.934Z,33.90
2022-08-10T10:25:59.374Z,33.10
2022-08-10T10:31:16.758Z,33.00
2022-08-10T10:36:22.312Z,33.90
2022-08-10T10:42:03.279Z,32.30
2022-08-10T10:47:10.345Z,33.30
2022-08-10T10:52:28.084Z,32.20
2022-08-10T10:57:58.503Z,32.30
2022-08-10T11:03:15.634Z,33.30
2022-08-10T11:08:28.716Z,33.20
2022-08-10T11:14:26.463Z,34.00
2022-08-10T11:19:10.604Z,33.70
2022-08-10T11:24:48.419Z,34.30
2022-08-10T11:29:57.786Z,34.40
2022-08-10T11:35:10.595Z,33.60
2022-08-10T11:40:21.843Z,34.70
2022-08-10T11:45:32.666Z,33.40
2022-08-10T11:50:43.686Z,34.00
2022-08-10T11:55:53.842Z,34.60
2022-08-10T12:00:57.455Z,33.40
2022-08-10T12:06:01.363Z,33.10
2022-08-10T12:11:05.789Z,31.50
2022-08-10T12:16:12.586Z,31.30
2022-08-10T12:21:21.962Z,32.30
2022-08-10T12:26:29.127Z,32.40
2022-08-10T12:31:38.769Z,33.60
2022-08-10T12:36:45.071Z,33.60
2022-08-10T12:41:55.714Z,34.40
2022-08-10T12:47:05.722Z,32.60
2022-08-10T12:52:20.245Z,33.10
2022-08-10T12:57:26.151Z,34.40
2022-08-10T13:02:32.493Z,34.80
2022-08-10T13:08:03.893Z,34.00
2022-08-10T13:13:03.315Z,33.30
2022-08-10T13:18:18.678Z,34.20
2022-08-10T13:23:25.414Z,34.90
2022-08-10T13:28:45.944Z,34.30
2022-08-10T13:34:41.045Z,34.60
2022-08-10T13:39:17.618Z,34.00
2022-08-10T13:44:33.150Z,34.40
2022-08-10T13:49:46.849Z,35.50
2022-08-10T13:54:51.788Z,34.30
2022-08-10T14:00:36.981Z,34.70
2022-08-10T14:05:28.038Z,35.30
2022-08-10T14:11:07.886Z,33.60
2022-08-10T14:16:06.718Z,34.80
2022-08-10T14:21:09.786Z,35.00
2022-08-10T14:26:16.047Z,34.50
2022-08-10T14:31:22.208Z,35.00
2022-08-10T14:36:32.536Z,36.00
2022-08-10T14:42:04.399Z,36.80
2022-08-10T14:47:52.743Z,36.40
2022-08-10T14:52:30.046Z,37.70
2022-08-10T14:58:19.895Z,37.60
2022-08-10T15:03:03.570Z,37.90
2022-08-10T15:08:14.947Z,37.60
2022-08-10T15:13:33.903Z,38.70
2022-08-10T15:18:41.924Z,39.80
2022-08-10T15:24:09.990Z,40.50
2022-08-10T15:29:23.198Z,41.20
2022-08-10T15:34:32.065Z,40.90
2022-08-10T15:40:24.576Z,42.10
2022-08-10T15:45:01.751Z,42.40
2022-08-10T15:50:14.170Z,42.00
2022-08-10T15:55:41.796Z,42.20
2022-08-10T16:00:50.803Z,42.50
2022-08-10T16:06:01.702Z,42.90
2022-08-10T16:11:14.025Z,42.90
2022-08-10T16:16:18.546Z,43.10
2022-08-10T16:21:29.071Z,43.10
2022-08-10T16:26:36.505Z,42.90
2022-08-10T16:31:49.571Z,42.90
2022-08-10T16:36:55.913Z,42.90
2022-08-10T16:42:04.787Z,42.50
2022-08-10T16:47:10.815Z,42.40
2022-08-10T16:52:15.864Z,42.40
2022-08-10T16:57:20.028Z,42.40
2022-08-10T17:02:24.925Z,42.40
2022-08-10T17:07:33.103Z,42.70
2022-08-10T17:12:39.383Z,42.70
2022-08-10T17:17:46.806Z,42.70
2022-08-10T17:22:54.760Z,42.90
2022-08-10T17:28:05.608Z,42.90
2022-08-10T17:33:29.693Z,42.80
2022-08-10T17:38:36.873Z,43.10
2022-08-10T17:43:58.280Z,43.00
2022-08-10T17:49:09.496Z,43.00
2022-08-10T17:54:26.774Z,43.30
2022-08-10T17:59:33.783Z,43.60
2022-08-10T18:04:41.817Z,43.40
2022-08-10T18:09:50.593Z,43.60
2022-08-10T18:14:56.554Z,43.90
2022-08-10T18:20:02.250Z,44.00
2022-08-10T18:25:08.662Z,44.20
2022-08-10T18:30:13.554Z,44.40
2022-08-10T18:35:19.052Z,44.40
2022-08-10T18:40:23.694Z,44.80
2022-08-10T18:45:44.073Z,45.10
2022-08-10T18:50:52.035Z,45.70
2022-08-10T18:56:09.520Z,45.90
2022-08-10T19:01:29.562Z,46.50
2022-08-10T19:06:52.293Z,46.90
2022-08-10T19:12:07.891Z,47.10
2022-08-10T19:18:03.486Z,47.50
2022-08-10T19:23:10.603Z,47.80
2022-08-10T19:28:22.892Z,48.20
2022-08-10T19:33:42.572Z,48.70
2022-08-10T19:38:52.312Z,49.00
2022-08-10T19:44:06.032Z,49.20
2022-08-10T19:49:21.831Z,50.00
2022-08-10T19:54:34.095Z,50.40
2022-08-10T20:00:15.811Z,50.70
2022-08-10T20:05:20.591Z,51.00
2022-08-10T20:10:28.032Z,51.20
2022-08-10T20:15:41.858Z,51.30
2022-08-10T20:20:50.133Z,51.90
2022-08-10T20:25:56.933Z,52.20
2022-08-10T20:31:10.354Z,52.40
2022-08-10T20:36:25.572Z,52.90
2022-08-10T20:41:43.807Z,52.90
2022-08-10T20:46:59.513Z,53.40
2022-08-10T20:52:05.032Z,53.80
2022-08-10T20:57:55.310Z,53.50
2022-08-10T21:03:31.714Z,54.70
2022-08-10T21:08:47.185Z,54.80
2022-08-10T21:14:23.873Z,55.00
2022-08-10T21:19:52.184Z,55.80
2022-08-10T21:25:03.239Z,55.60
2022-08-10T21:30:09.125Z,55.30
2022-08-10T21:35:36.748Z,55.40
2022-08-10T21:41:18.324Z,56.50
2022-08-10T21:46:38.313Z,57.60
2022-08-10T21:52:07.273Z,56.90
2022-08-10T21:57:16.232Z,57.10
2022-08-10T22:02:28.193Z,57.20
2022-08-10T22:07:34.932Z,57.50
2022-08-10T22:12:46.847Z,57.50
2022-08-10T22:18:04.276Z,57.60
2022-08-10T22:23:37.549Z,57.40
2022-08-10T22:28:48.647Z,58.50
2022-08-10T22:33:58.028Z,58.10
2022-08-10T22:39:16.426Z,58.30
2022-08-10T22:44:41.941Z,59.00
2022-08-10T22:49:44.429Z,58.40
2022-08-10T22:54:55.149Z,58.50
2022-08-10T22:59:58.148Z,59.40
2022-08-10T23:05:08.708Z,58.90
2022-08-10T23:10:16.548Z,59.90
2022-08-10T23:15:25.662Z,59.80
2022-08-10T23:20:30.152Z,60.10
2022-08-10T23:25:39.883Z,59.60
2022-08-10T23:30:59.623Z,60.10
2022-08-10T23:36:27.736Z,59.50
2022-08-10T23:41:30.083Z,59.70
2022-08-10T23:46:37.243Z,60.10
2022-08-10T23:51:56.317Z,60.20
2022-08-10T23:57:01.852Z,59.60
